createdAt,value
2023-03-31T00:02:12.843Z,98969.01
2023-03-31T00:07:15.844Z,98966.26
2023-03-31T00:12:18.027Z,98976.42
2023-03-31T00:17:19.909Z,98982.23
2023-03-31T00:22:21.782Z,98986.54
2023-03-31T00:27:23.564Z,98987.83
2023-03-31T00:32:25.547Z,98985.95
2023-03-31T00:37:28.131Z,98988.13
2023-03-31T00:42:30.008Z,98990.98
2023-03-31T00:47:31.830Z,98988.87
2023-03-31T00:52:37.132Z,98993.12
2023-03-31T00:57:41.280Z,98993.69
2023-03-31T01:02:51.797Z,98992.16
2023-03-31T01:07:55.672Z,98988.81
2023-03-31T01:12:58.262Z,98988.45
2023-03-31T01:18:00.730Z,98984.83
2023-03-31T01:23:17.889Z,98984.55
2023-03-31T01:28:28.675Z,98983.90
2023-03-31T01:34:07.678Z,98982.48
2023-03-31T01:39:15.642Z,98986.73
2023-03-31T01:44:22.841Z,98993.84
2023-03-31T01:49:34.856Z,98995.67
2023-03-31T01:54:51.686Z,98992.19
2023-03-31T02:00:33.091Z,98987.99
2023-03-31T02:05:42.656Z,98985.81
2023-03-31T02:10:46.158Z,98990.11
2023-03-31T02:15:54.144Z,98988.66
2023-03-31T02:20:58.722Z,98986.58
2023-03-31T02:26:17.028Z,98981.34
2023-03-31T02:31:27.884Z,98977.54
2023-03-31T02:36:29.753Z,98973.73
2023-03-31T02:41:32.646Z,98972.70
2023-03-31T02:46:34.526Z,98976.61
2023-03-31T02:51:55.669Z,98974.48
2023-03-31T02:57:09.561Z,98972.83
2023-03-31T03:02:11.320Z,98974.80
2023-03-31T03:07:21.162Z,98981.21
2023-03-31T03:12:41.052Z,98977.63
2023-03-31T03:17:48.411Z,98978.07
2023-03-31T03:22:50.435Z,98978.44
2023-03-31T03:27:55.186Z,98978.83
2023-03-31T03:32:58.636Z,98978.10
2023-03-31T03:38:00.373Z,98984.23
2023-03-31T03:43:02.452Z,98990.79
2023-03-31T03:48:04.582Z,98988.68
2023-03-31T03:53:07.700Z,98984.48
2023-03-31T03:58:09.922Z,98988.79
2023-03-31T04:03:12.828Z,98980.27
2023-03-31T04:08:14.499Z,98974.83
2023-03-31T04:13:18.209Z,98976.00
2023-03-31T04:18:23.551Z,98973.97
2023-03-31T04:23:26.160Z,98975.80
2023-03-31T04:28:34.295Z,98971.67
2023-03-31T04:33:39.439Z,98968.25
2023-03-31T04:38:41.109Z,98958.07
2023-03-31T04:43:43.086Z,98954.89
2023-03-31T04:48:44.961Z,98949.83
2023-03-31T04:53:47.144Z,98945.27
2023-03-31T04:58:48.746Z,98939.33
2023-03-31T05:03:50.839Z,98939.42
2023-03-31T05:08:52.990Z,98939.11
2023-03-31T05:13:55.172Z,98940.79
2023-03-31T05:18:57.470Z,98937.27
2023-03-31T05:23:59.441Z,98930.05
2023-03-31T05:29:01.297Z,98926.43
2023-03-31T05:34:02.994Z,98926.35
2023-03-31T05:39:05.788Z,98923.79
2023-03-31T05:44:07.576Z,98919.02
2023-03-31T05:49:10.973Z,98915.04
2023-03-31T05:54:13.069Z,98907.21
2023-03-31T05:59:15.251Z,98907.61
2023-03-31T06:04:17.582Z,98903.74
2023-03-31T06:09:20.018Z,98907.08
2023-03-31T06:14:22.408Z,98911.27
2023-03-31T06:19:24.870Z,98914.10
2023-03-31T06:24:26.785Z,98917.80
2023-03-31T06:29:28.673Z,98916.45
2023-03-31T06:34:30.642Z,98917.16
2023-03-31T06:39:32.416Z,98923.35
2023-03-31T06:44:34.289Z,98922.50
2023-03-31T06:49:35.952Z,98923.52
2023-03-31T06:54:38.146Z,98922.82
2023-03-31T06:59:40.215Z,98921.88
2023-03-31T07:04:42.097Z,98924.27
2023-03-31T07:09:43.975Z,98926.90
2023-03-31T07:14:45.850Z,98925.52
2023-03-31T07:19:48.252Z,98924.27
2023-03-31T07:24:50.237Z,98920.15
2023-03-31T07:29:52.107Z,98925.66
2023-03-31T07:34:53.964Z,98919.84
2023-03-31T07:39:55.749Z,98920.77
2023-03-31T07:44:57.513Z,98924.09
2023-03-31T07:49:59.598Z,98918.83
2023-03-31T07:55:01.791Z,98912.46
2023-03-31T08:00:09.330Z,98900.73
2023-03-31T08:05:13.959Z,98891.64
2023-03-31T08:10:22.774Z,98887.95
2023-03-31T08:15:24.696Z,98889.02
2023-03-31T08:20:27.260Z,98882.27
2023-03-31T08:25:29.037Z,98883.99
2023-03-31T08:30:30.994Z,98882.47
2023-03-31T08:35:35.778Z,98881.73
2023-03-31T08:40:41.324Z,98879.19
2023-03-31T08:45:47.484Z,98876.05
2023-03-31T08:50:55.676Z,98876.14
2023-03-31T08:55:59.115Z,98876.23
2023-03-31T09:01:22.013Z,98873.95
2023-03-31T09:06:36.255Z,98871.90
2023-03-31T09:12:01.073Z,98869.01
2023-03-31T09:17:23.788Z,98864.64
2023-03-31T09:22:33.586Z,98855.47
2023-03-31T09:27:38.646Z,98854.34
2023-03-31T09:32:41.573Z,98856.86
2023-03-31T09:37:43.668Z,98858.11
2023-03-31T09:42:50.835Z,98855.95
2023-03-31T09:48:01.020Z,98852.41
2023-03-31T09:53:05.664Z,98848.63
2023-03-31T09:58:12.860Z,98849.11
2023-03-31T10:03:15.697Z,98848.77
2023-03-31T10:08:23.463Z,98844.91
2023-03-31T10:13:28.890Z,98846.16
2023-03-31T10:18:42.324Z,98840.73
2023-03-31T10:23:49.880Z,98846.16
2023-03-31T10:28:57.579Z,98839.42
2023-03-31T10:34:04.689Z,98836.09
2023-03-31T10:39:07.405Z,98833.84
2023-03-31T10:44:37.317Z,98835.91
2023-03-31T10:49:41.242Z,98836.90
2023-03-31T10:54:53.265Z,98828.42
2023-03-31T11:00:27.533Z,98824.42
2023-03-31T11:05:42.282Z,98822.42
2023-03-31T11:10:54.183Z,98821.86
2023-03-31T11:16:12.591Z,98820.04
2023-03-31T11:21:31.632Z,98821.17
2023-03-31T11:27:03.521Z,98819.38
2023-03-31T11:32:31.732Z,98814.65
2023-03-31T11:37:36.862Z,98813.67
2023-03-31T11:43:09.861Z,98808.93
2023-03-31T11:48:30.890Z,98803.20
2023-03-31T11:53:38.406Z,98798.48
2023-03-31T11:59:02.597Z,98788.02
2023-03-31T12:04:13.225Z,98788.16
2023-03-31T12:09:30.334Z,98783.95
2023-03-31T12:14:56.981Z,98778.92
2023-03-31T12:20:14.377Z,98766.40
2023-03-31T12:25:23.489Z,98766.41
2023-03-31T12:30:37.224Z,98762.73
2023-03-31T12:36:25.324Z,98760.34
2023-03-31T12:41:44.251Z,98752.65
2023-03-31T12:46:55.154Z,98742.40
2023-03-31T12:52:00.004Z,98735.71
2023-03-31T12:57:01.920Z,98730.91
2023-03-31T13:02:10.031Z,98723.09
2023-03-31T13:07:33.776Z,98714.52
2023-03-31T13:12:35.668Z,98705.13
2023-03-31T13:17:38.152Z,98694.63
2023-03-31T13:22:45.447Z,98688.42
2023-03-31T13:27:52.869Z,98680.20
2023-03-31T13:33:30.773Z,98674.79
2023-03-31T13:39:04.645Z,98670.31
2023-03-31T13:44:47.436Z,98669.97
2023-03-31T13:49:56.012Z,98667.54
2023-03-31T13:55:16.747Z,98659.88
2023-03-31T14:00:41.809Z,98653.02
2023-03-31T14:06:44.108Z,98651.89
2023-03-31T14:11:47.305Z,98651.77
2023-03-31T14:16:53.795Z,98645.64
2023-03-31T14:22:14.223Z,98644.20
2023-03-31T14:27:30.427Z,98634.73
2023-03-31T14:32:45.581Z,98625.60
2023-03-31T14:37:48.527Z,98618.73
2023-03-31T14:42:50.393Z,98610.39
2023-03-31T14:48:13.059Z,98607.01
2023-03-31T14:53:17.021Z,98596.04
2023-03-31T14:58:31.456Z,98591.24
2023-03-31T15:03:36.996Z,98587.75
2023-03-31T15:08:40.346Z,98589.52
2023-03-31T15:14:01.194Z,98593.23
2023-03-31T15:19:20.949Z,98599.93
2023-03-31T15:24:23.852Z,98599.28
2023-03-31T15:29:31.231Z,98589.23
2023-03-31T15:34:36.405Z,98586.64
2023-03-31T15:39:44.122Z,98585.55
2023-03-31T15:44:53.695Z,98587.66
2023-03-31T15:50:12.837Z,98590.73
2023-03-31T15:55:32.044Z,98592.67
2023-03-31T16:00:40.262Z,98589.94
2023-03-31T16:05:54.362Z,98586.75
2023-03-31T16:11:03.077Z,98582.58
2023-03-31T16:16:10.435Z,98578.40
2023-03-31T16:21:14.994Z,98578.05
2023-03-31T16:26:25.473Z,98571.34
2023-03-31T16:31:39.732Z,98560.72
2023-03-31T16:36:42.498Z,98558.48
2023-03-31T16:41:44.449Z,98551.23
2023-03-31T16:46:46.893Z,98547.20
2023-03-31T16:51:49.305Z,98548.15
2023-03-31T16:56:52.437Z,98546.08
2023-03-31T17:01:55.321Z,98545.11
2023-03-31T17:06:57.503Z,98546.85
2023-03-31T17:11:59.278Z,98541.61
2023-03-31T17:17:01.175Z,98539.10
2023-03-31T17:22:03.348Z,98534.89
2023-03-31T17:27:05.538Z,98532.09
2023-03-31T17:32:07.464Z,98534.04
2023-03-31T17:37:09.818Z,98535.56
2023-03-31T17:42:12.899Z,98536.29
2023-03-31T17:47:15.179Z,98532.41
2023-03-31T17:52:17.368Z,98529.67
2023-03-31T17:57:19.990Z,98533.85
2023-03-31T18:02:24.581Z,98535.42
2023-03-31T18:07:26.884Z,98535.13
2023-03-31T18:12:29.276Z,98532.80
2023-03-31T18:17:31.834Z,98531.13
2023-03-31T18:22:33.839Z,98531.04
2023-03-31T18:27:37.191Z,98531.70
2023-03-31T18:32:39.484Z,98524.52
2023-03-31T18:37:42.463Z,98524.69
2023-03-31T18:42:46.165Z,98521.34
2023-03-31T18:47:48.244Z,98514.53
2023-03-31T18:52:54.353Z,98525.44
2023-03-31T18:57:57.635Z,98523.72
2023-03-31T19:03:00.274Z,98528.25
2023-03-31T19:08:02.622Z,98526.52
2023-03-31T19:13:05.740Z,98529.34
2023-03-31T19:18:14.279Z,98540.25
2023-03-31T19:23:17.984Z,98534.33
2023-03-31T19:28:22.733Z,98527.14
2023-03-31T19:33:26.082Z,98524.98
2023-03-31T19:38:31.621Z,98521.14
2023-03-31T19:43:34.117Z,98510.55
2023-03-31T19:48:37.400Z,98501.04
2023-03-31T19:53:40.726Z,98496.64
2023-03-31T19:58:42.391Z,98489.08
2023-03-31T20:03:46.464Z,98484.13
2023-03-31T20:08:55.880Z,98475.71
2023-03-31T20:13:59.289Z,98471.30
2023-03-31T20:19:04.643Z,98472.18
2023-03-31T20:24:07.754Z,98471.59
2023-03-31T20:29:10.488Z,98469.08
2023-03-31T20:34:14.780Z,98465.57
2023-03-31T20:39:18.086Z,98462.80
2023-03-31T20:44:20.988Z,98455.48
2023-03-31T20:49:22.881Z,98458.39
2023-03-31T20:54:25.667Z,98456.10
2023-03-31T20:59:28.681Z,98457.60
2023-03-31T21:04:30.660Z,98458.44
2023-03-31T21:09:32.663Z,98456.96
2023-03-31T21:14:35.321Z,98454.79
2023-03-31T21:19:37.512Z,98450.77
2023-03-31T21:24:39.611Z,98445.51
2023-03-31T21:29:41.574Z,98444.56
2023-03-31T21:34:43.447Z,98449.39
2023-03-31T21:39:46.043Z,98445.56
2023-03-31T21:44:48.751Z,98448.84
2023-03-31T21:49:52.360Z,98457.00
2023-03-31T21:54:54.232Z,98457.57
2023-03-31T21:59:56.034Z,98460.63
2023-03-31T22:04:57.919Z,98457.61
2023-03-31T22:10:00.897Z,98460.17
2023-03-31T22:15:04.504Z,98454.07
2023-03-31T22:20:08.840Z,98453.34
2023-03-31T22:25:11.636Z,98453.10
2023-03-31T22:30:14.639Z,98446.56
2023-03-31T22:35:17.245Z,98441.48
2023-03-31T22:40:19.219Z,98436.48
2023-03-31T22:45:21.618Z,98440.44
2023-03-31T22:50:24.098Z,98434.30
2023-03-31T22:55:26.574Z,98430.30
2023-03-31T23:00:28.453Z,98430.96
2023-03-31T23:05:30.848Z,98431.04
2023-03-31T23:10:32.725Z,98432.19
2023-03-31T23:15:36.343Z,98433.15
2023-03-31T23:20:39.039Z,98431.49
2023-03-31T23:25:41.339Z,98427.52
2023-03-31T23:30:51.902Z,98425.73
2023-03-31T23:36:00.064Z,98423.86
2023-03-31T23:41:03.234Z,98416.42
2023-03-31T23:46:07.697Z,98412.41
2023-03-31T23:51:09.655Z,98411.52
2023-03-31T23:56:12.862Z,98408.45
